Aérodrome :







RETROUVEZ-NOUS SUR...

 
LOGIN :

S'inscrire | Disclaimer

   EN    FR    IT 

 









Légende :    VFR   VFR Marginal   IFR   IFR Intensif   IFR Très Intensif
Visi : 
Plafond : 
>= 8 km
>= 3000ft
5 à 8 km
1000 à 3000 ft
1500m à 5 km
500 à 1000 ft
800 à 1500m
200 à 500 ft
< 800m
< 200 ft
Symboles :   Orages  Brouillard  Fortes neiges  Fortes précipitations  Vent > 20 kt






- Altitude de l'aérodrome : 654 ft


KAQW - Harriman and West

DERNIER METAR :
  • 122352Z AUTO 28013G26KT 9SM -SN SCT031 M06/M12 A2999 RMK AO2 PK WND 27026/2345 SNB10 SLP165 P0000 60000 T10611117 11039 21061 51020 $

METARs EXPIRÉS :
  • 122252Z AUTO 28009KT 9SM BKN033 M06/M11 A2998 RMK AO2 SNE47 SLP160 P0000 T10561111 $
  • 122152Z AUTO 28013G25KT 9SM -SN SCT033 M04/M11 A2995 RMK AO2 SLP149 P0000 T10441106 $

TAF N/A



MET'MAP, la Météo Aéronautique d'un coup d'oeil ! - Copyright ORBIFLY Décembre 2007 - Disclaimer

ORBIFLY MET'MAP TEAM :

Programmation & Développement : Alexandra Zaïnal
Conception & Développement : Baudouin d'Aumeries
Co-Programmation & Développement : Marc-Olivier Méhu
Soutien technique & logistique : Manuel Goepfert

Contact : metmap@orbifly.com




SOURCES & CREDITS :

   NOAA